sensor_id;sensor_type;location;lat;lon;timestamp;P1;durP1;ratioP1;P2;durP2;ratioP2
30593;SDS011;33199;47.590;8.300;2023-04-15T00:01:05;1.75;;;1.60;;
30593;SDS011;33199;47.590;8.300;2023-04-15T00:03:30;2.90;;;1.50;;
30593;SDS011;33199;47.590;8.300;2023-04-15T00:05:58;2.20;;;2.00;;
30593;SDS011;33199;47.590;8.300;2023-04-15T00:08:24;1.88;;;1.60;;
30593;SDS011;33199;47.590;8.300;2023-04-15T00:10:49;1.83;;;1.73;;
30593;SDS011;33199;47.590;8.300;2023-04-15T00:13:15;1.50;;;1.40;;
30593;SDS011;33199;47.590;8.300;2023-04-15T00:15:41;2.40;;;1.67;;
30593;SDS011;33199;47.590;8.300;2023-04-15T00:18:07;2.78;;;1.73;;
30593;SDS011;33199;47.590;8.300;2023-04-15T00:20:33;5.47;;;1.67;;
30593;SDS011;33199;47.590;8.300;2023-04-15T00:23:00;4.32;;;1.70;;
30593;SDS011;33199;47.590;8.300;2023-04-15T00:25:27;1.42;;;1.25;;
30593;SDS011;33199;47.590;8.300;2023-04-15T00:27:53;1.77;;;1.67;;
30593;SDS011;33199;47.590;8.300;2023-04-15T00:30:19;2.33;;;1.77;;
30593;SDS011;33199;47.590;8.300;2023-04-15T00:32:45;1.38;;;1.27;;
30593;SDS011;33199;47.590;8.300;2023-04-15T00:35:10;1.80;;;1.35;;
30593;SDS011;33199;47.590;8.300;2023-04-15T00:37:36;2.55;;;1.40;;
30593;SDS011;33199;47.590;8.300;2023-04-15T00:40:02;2.00;;;1.70;;
30593;SDS011;33199;47.590;8.300;2023-04-15T00:42:30;1.70;;;1.55;;
30593;SDS011;33199;47.590;8.300;2023-04-15T00:44:56;2.45;;;1.92;;
30593;SDS011;33199;47.590;8.300;2023-04-15T00:47:22;3.10;;;1.80;;
30593;SDS011;33199;47.590;8.300;2023-04-15T00:49:47;1.80;;;1.70;;
30593;SDS011;33199;47.590;8.300;2023-04-15T00:52:14;2.92;;;1.38;;
30593;SDS011;33199;47.590;8.300;2023-04-15T00:54:40;1.83;;;1.70;;
30593;SDS011;33199;47.590;8.300;2023-04-15T00:57:05;2.17;;;1.90;;
30593;SDS011;33199;47.590;8.300;2023-04-15T00:59:32;2.00;;;1.70;;
30593;SDS011;33199;47.590;8.300;2023-04-15T01:01:59;4.70;;;1.60;;
30593;SDS011;33199;47.590;8.300;2023-04-15T01:04:25;2.33;;;1.70;;
30593;SDS011;33199;47.590;8.300;2023-04-15T01:06:51;1.92;;;1.73;;
30593;SDS011;33199;47.590;8.300;2023-04-15T01:09:17;1.80;;;1.40;;
30593;SDS011;33199;47.590;8.300;2023-04-15T01:11:42;1.58;;;1.48;;
30593;SDS011;33199;47.590;8.300;2023-04-15T01:14:08;1.58;;;1.48;;
30593;SDS011;33199;47.590;8.300;2023-04-15T01:16:35;3.78;;;1.70;;
30593;SDS011;33199;47.590;8.300;2023-04-15T01:19:04;1.40;;;1.30;;
30593;SDS011;33199;47.590;8.300;2023-04-15T01:21:35;1.40;;;1.30;;
30593;SDS011;33199;47.590;8.300;2023-04-15T01:24:07;1.48;;;1.38;;
30593;SDS011;33199;47.590;8.300;2023-04-15T01:26:37;1.73;;;1.48;;
30593;SDS011;33199;47.590;8.300;2023-04-15T01:29:04;1.90;;;1.55;;
30593;SDS011;33199;47.590;8.300;2023-04-15T01:31:31;2.10;;;1.75;;
30593;SDS011;33199;47.590;8.300;2023-04-15T01:33:57;2.28;;;1.42;;
30593;SDS011;33199;47.590;8.300;2023-04-15T01:36:23;2.25;;;1.67;;
30593;SDS011;33199;47.590;8.300;2023-04-15T01:38:49;1.95;;;1.58;;
30593;SDS011;33199;47.590;8.300;2023-04-15T01:41:15;2.15;;;1.42;;
30593;SDS011;33199;47.590;8.300;2023-04-15T01:43:41;1.40;;;1.30;;
30593;SDS011;33199;47.590;8.300;2023-04-15T01:46:06;1.60;;;1.50;;
30593;SDS011;33199;47.590;8.300;2023-04-15T01:48:32;1.50;;;1.35;;
30593;SDS011;33199;47.590;8.300;2023-04-15T01:50:58;1.65;;;1.45;;
30593;SDS011;33199;47.590;8.300;2023-04-15T01:53:24;2.55;;;1.67;;
30593;SDS011;33199;47.590;8.300;2023-04-15T01:55:50;1.88;;;1.60;;
30593;SDS011;33199;47.590;8.300;2023-04-15T01:58:17;2.08;;;1.45;;
30593;SDS011;33199;47.590;8.300;2023-04-15T02:00:43;1.65;;;1.55;;
30593;SDS011;33199;47.590;8.300;2023-04-15T02:03:09;1.88;;;1.67;;
30593;SDS011;33199;47.590;8.300;2023-04-15T02:05:35;6.03;;;1.67;;
30593;SDS011;33199;47.590;8.300;2023-04-15T02:08:01;2.15;;;1.65;;
30593;SDS011;33199;47.590;8.300;2023-04-15T02:10:27;1.50;;;1.40;;
30593;SDS011;33199;47.590;8.300;2023-04-15T02:12:53;1.40;;;1.23;;
30593;SDS011;33199;47.590;8.300;2023-04-15T02:15:19;2.33;;;1.60;;
30593;SDS011;33199;47.590;8.300;2023-04-15T02:17:44;3.08;;;1.50;;
30593;SDS011;33199;47.590;8.300;2023-04-15T02:20:16;1.60;;;1.42;;
30593;SDS011;33199;47.590;8.300;2023-04-15T02:22:42;1.97;;;1.20;;
30593;SDS011;33199;47.590;8.300;2023-04-15T02:25:08;1.67;;;1.58;;
30593;SDS011;33199;47.590;8.300;2023-04-15T02:27:34;1.60;;;1.50;;
30593;SDS011;33199;47.590;8.300;2023-04-15T02:30:00;1.42;;;1.27;;
30593;SDS011;33199;47.590;8.300;2023-04-15T02:32:26;2.00;;;1.80;;
30593;SDS011;33199;47.590;8.300;2023-04-15T02:34:53;2.45;;;1.40;;
30593;SDS011;33199;47.590;8.300;2023-04-15T02:37:18;1.60;;;1.42;;
30593;SDS011;33199;47.590;8.300;2023-04-15T02:39:44;1.65;;;1.20;;
30593;SDS011;33199;47.590;8.300;2023-04-15T02:42:10;1.65;;;1.55;;
30593;SDS011;33199;47.590;8.300;2023-04-15T02:44:37;1.50;;;1.23;;
30593;SDS011;33199;47.590;8.300;2023-04-15T02:47:03;2.15;;;1.48;;
30593;SDS011;33199;47.590;8.300;2023-04-15T02:49:31;1.53;;;1.20;;
30593;SDS011;33199;47.590;8.300;2023-04-15T02:51:57;1.63;;;1.27;;
30593;SDS011;33199;47.590;8.300;2023-04-15T02:54:24;1.50;;;1.38;;
30593;SDS011;33199;47.590;8.300;2023-04-15T02:56:52;1.40;;;1.30;;
30593;SDS011;33199;47.590;8.300;2023-04-15T02:59:20;1.42;;;1.33;;
30593;SDS011;33199;47.590;8.300;2023-04-15T03:01:46;1.20;;;1.10;;
30593;SDS011;33199;47.590;8.300;2023-04-15T03:04:12;2.58;;;1.45;;
30593;SDS011;33199;47.590;8.300;2023-04-15T03:06:38;1.27;;;1.20;;
30593;SDS011;33199;47.590;8.300;2023-04-15T03:09:04;3.13;;;1.30;;
30593;SDS011;33199;47.590;8.300;2023-04-15T03:11:30;2.00;;;1.40;;
30593;SDS011;33199;47.590;8.300;2023-04-15T03:13:56;1.15;;;1.10;;
30593;SDS011;33199;47.590;8.300;2023-04-15T03:16:24;1.48;;;1.25;;
30593;SDS011;33199;47.590;8.300;2023-04-15T03:18:49;1.88;;;1.30;;
30593;SDS011;33199;47.590;8.300;2023-04-15T03:21:15;2.20;;;1.40;;
30593;SDS011;33199;47.590;8.300;2023-04-15T03:23:41;1.52;;;1.27;;
30593;SDS011;33199;47.590;8.300;2023-04-15T03:26:06;1.75;;;1.02;;
30593;SDS011;33199;47.590;8.300;2023-04-15T03:28:32;1.40;;;1.30;;
30593;SDS011;33199;47.590;8.300;2023-04-15T03:30:58;1.35;;;1.25;;
30593;SDS011;33199;47.590;8.300;2023-04-15T03:33:24;1.77;;;1.17;;
30593;SDS011;33199;47.590;8.300;2023-04-15T03:35:50;2.17;;;1.35;;
30593;SDS011;33199;47.590;8.300;2023-04-15T03:38:16;1.20;;;1.10;;
30593;SDS011;33199;47.590;8.300;2023-04-15T03:40:42;1.67;;;1.40;;
30593;SDS011;33199;47.590;8.300;2023-04-15T03:43:07;2.42;;;1.10;;
30593;SDS011;33199;47.590;8.300;2023-04-15T03:45:34;1.98;;;1.20;;
30593;SDS011;33199;47.590;8.300;2023-04-15T03:48:00;1.73;;;1.27;;
30593;SDS011;33199;47.590;8.300;2023-04-15T03:50:25;1.48;;;1.30;;
30593;SDS011;33199;47.590;8.300;2023-04-15T03:52:51;1.20;;;1.10;;
30593;SDS011;33199;47.590;8.300;2023-04-15T03:55:17;1.17;;;1.08;;
30593;SDS011;33199;47.590;8.300;2023-04-15T03:57:44;3.95;;;1.10;;
30593;SDS011;33199;47.590;8.300;2023-04-15T04:00:11;1.42;;;1.33;;
30593;SDS011;33199;47.590;8.300;2023-04-15T04:02:37;1.75;;;1.10;;
30593;SDS011;33199;47.590;8.300;2023-04-15T04:05:02;1.42;;;1.35;;
30593;SDS011;33199;47.590;8.300;2023-04-15T04:07:28;1.40;;;1.30;;
30593;SDS011;33199;47.590;8.300;2023-04-15T04:09:56;1.20;;;1.10;;
30593;SDS011;33199;47.590;8.300;2023-04-15T04:12:22;1.92;;;1.27;;
30593;SDS011;33199;47.590;8.300;2023-04-15T04:14:47;2.65;;;1.35;;
30593;SDS011;33199;47.590;8.300;2023-04-15T04:17:13;2.35;;;1.23;;
30593;SDS011;33199;47.590;8.300;2023-04-15T04:19:38;1.30;;;1.20;;
30593;SDS011;33199;47.590;8.300;2023-04-15T04:22:04;3.28;;;1.33;;
30593;SDS011;33199;47.590;8.300;2023-04-15T04:24:30;1.30;;;1.20;;
30593;SDS011;33199;47.590;8.300;2023-04-15T04:26:56;1.30;;;1.10;;
30593;SDS011;33199;47.590;8.300;2023-04-15T04:29:22;1.00;;;1.00;;
30593;SDS011;33199;47.590;8.300;2023-04-15T04:31:47;1.10;;;1.00;;
30593;SDS011;33199;47.590;8.300;2023-04-15T04:34:13;2.78;;;1.30;;
30593;SDS011;33199;47.590;8.300;2023-04-15T04:36:39;1.52;;;1.10;;
30593;SDS011;33199;47.590;8.300;2023-04-15T04:39:05;1.35;;;1.25;;
30593;SDS011;33199;47.590;8.300;2023-04-15T04:41:31;1.55;;;1.35;;
30593;SDS011;33199;47.590;8.300;2023-04-15T04:43:57;1.55;;;1.17;;
30593;SDS011;33199;47.590;8.300;2023-04-15T04:46:23;1.40;;;1.30;;
30593;SDS011;33199;47.590;8.300;2023-04-15T04:48:48;1.10;;;1.00;;
30593;SDS011;33199;47.590;8.300;2023-04-15T04:51:14;1.23;;;1.13;;
30593;SDS011;33199;47.590;8.300;2023-04-15T04:53:40;1.17;;;1.08;;
30593;SDS011;33199;47.590;8.300;2023-04-15T04:56:07;1.95;;;1.10;;
30593;SDS011;33199;47.590;8.300;2023-04-15T04:58:32;2.97;;;1.35;;
30593;SDS011;33199;47.590;8.300;2023-04-15T05:00:58;1.00;;;1.00;;
30593;SDS011;33199;47.590;8.300;2023-04-15T05:03:23;1.60;;;1.40;;
30593;SDS011;33199;47.590;8.300;2023-04-15T05:05:49;1.42;;;1.33;;
30593;SDS011;33199;47.590;8.300;2023-04-15T05:08:15;1.55;;;1.27;;
30593;SDS011;33199;47.590;8.300;2023-04-15T05:10:41;2.28;;;1.60;;
30593;SDS011;33199;47.590;8.300;2023-04-15T05:13:06;1.67;;;1.25;;
30593;SDS011;33199;47.590;8.300;2023-04-15T05:15:32;1.25;;;1.00;;
30593;SDS011;33199;47.590;8.300;2023-04-15T05:17:59;3.83;;;1.17;;
30593;SDS011;33199;47.590;8.300;2023-04-15T05:20:24;1.63;;;1.08;;
30593;SDS011;33199;47.590;8.300;2023-04-15T05:22:50;1.85;;;1.08;;
30593;SDS011;33199;47.590;8.300;2023-04-15T05:25:16;1.40;;;1.30;;
30593;SDS011;33199;47.590;8.300;2023-04-15T05:27:41;1.30;;;1.20;;
30593;SDS011;33199;47.590;8.300;2023-04-15T05:30:07;1.10;;;1.10;;
30593;SDS011;33199;47.590;8.300;2023-04-15T05:32:33;1.50;;;1.40;;
30593;SDS011;33199;47.590;8.300;2023-04-15T05:34:59;2.50;;;1.00;;
30593;SDS011;33199;47.590;8.300;2023-04-15T05:37:25;2.60;;;1.02;;
30593;SDS011;33199;47.590;8.300;2023-04-15T05:39:50;1.42;;;1.33;;
30593;SDS011;33199;47.590;8.300;2023-04-15T05:42:16;1.40;;;1.30;;
30593;SDS011;33199;47.590;8.300;2023-04-15T05:44:42;1.20;;;0.80;;
30593;SDS011;33199;47.590;8.300;2023-04-15T05:47:07;1.50;;;1.40;;
30593;SDS011;33199;47.590;8.300;2023-04-15T05:49:34;2.05;;;1.38;;
30593;SDS011;33199;47.590;8.300;2023-04-15T05:52:00;1.38;;;1.08;;
30593;SDS011;33199;47.590;8.300;2023-04-15T05:54:26;1.00;;;1.00;;
30593;SDS011;33199;47.590;8.300;2023-04-15T05:56:52;0.93;;;0.93;;
30593;SDS011;33199;47.590;8.300;2023-04-15T05:59:18;1.35;;;1.27;;
30593;SDS011;33199;47.590;8.300;2023-04-15T06:01:43;1.48;;;1.20;;
30593;SDS011;33199;47.590;8.300;2023-04-15T06:04:09;3.53;;;1.10;;
30593;SDS011;33199;47.590;8.300;2023-04-15T06:06:35;1.10;;;1.10;;
30593;SDS011;33199;47.590;8.300;2023-04-15T06:09:02;1.48;;;1.30;;
30593;SDS011;33199;47.590;8.300;2023-04-15T06:11:28;1.33;;;1.05;;
30593;SDS011;33199;47.590;8.300;2023-04-15T06:13:53;1.70;;;1.13;;
30593;SDS011;33199;47.590;8.300;2023-04-15T06:16:19;1.85;;;1.13;;
30593;SDS011;33199;47.590;8.300;2023-04-15T06:18:44;1.17;;;1.05;;
30593;SDS011;33199;47.590;8.300;2023-04-15T06:21:10;1.45;;;1.35;;
30593;SDS011;33199;47.590;8.300;2023-04-15T06:23:36;1.27;;;1.17;;
30593;SDS011;33199;47.590;8.300;2023-04-15T06:26:01;0.95;;;0.95;;
30593;SDS011;33199;47.590;8.300;2023-04-15T06:28:27;1.05;;;1.05;;
30593;SDS011;33199;47.590;8.300;2023-04-15T06:30:53;1.48;;;1.38;;
30593;SDS011;33199;47.590;8.300;2023-04-15T06:33:19;1.13;;;1.10;;
30593;SDS011;33199;47.590;8.300;2023-04-15T06:35:45;1.48;;;1.42;;
30593;SDS011;33199;47.590;8.300;2023-04-15T06:38:11;1.40;;;1.30;;
30593;SDS011;33199;47.590;8.300;2023-04-15T06:40:37;4.72;;;1.50;;
30593;SDS011;33199;47.590;8.300;2023-04-15T06:43:02;1.10;;;1.10;;
30593;SDS011;33199;47.590;8.300;2023-04-15T06:45:29;1.70;;;1.10;;
30593;SDS011;33199;47.590;8.300;2023-04-15T06:47:55;1.60;;;1.10;;
30593;SDS011;33199;47.590;8.300;2023-04-15T06:50:20;1.35;;;1.20;;
30593;SDS011;33199;47.590;8.300;2023-04-15T06:52:46;1.08;;;1.05;;
30593;SDS011;33199;47.590;8.300;2023-04-15T06:55:12;1.08;;;1.08;;
30593;SDS011;33199;47.590;8.300;2023-04-15T06:57:38;0.95;;;0.95;;
30593;SDS011;33199;47.590;8.300;2023-04-15T07:00:04;1.42;;;1.00;;
30593;SDS011;33199;47.590;8.300;2023-04-15T07:02:31;1.20;;;1.10;;
30593;SDS011;33199;47.590;8.300;2023-04-15T07:04:57;1.15;;;1.05;;
30593;SDS011;33199;47.590;8.300;2023-04-15T07:07:22;2.35;;;1.10;;
30593;SDS011;33199;47.590;8.300;2023-04-15T07:09:49;1.33;;;1.20;;
30593;SDS011;33199;47.590;8.300;2023-04-15T07:12:16;1.40;;;1.30;;
30593;SDS011;33199;47.590;8.300;2023-04-15T07:14:42;0.90;;;0.90;;
30593;SDS011;33199;47.590;8.300;2023-04-15T07:17:08;2.35;;;1.08;;
30593;SDS011;33199;47.590;8.300;2023-04-15T07:19:33;1.25;;;1.00;;
30593;SDS011;33199;47.590;8.300;2023-04-15T07:21:59;1.17;;;1.08;;
30593;SDS011;33199;47.590;8.300;2023-04-15T07:24:25;1.30;;;1.20;;
30593;SDS011;33199;47.590;8.300;2023-04-15T07:26:54;1.60;;;1.40;;
30593;SDS011;33199;47.590;8.300;2023-04-15T07:29:21;1.65;;;1.27;;
30593;SDS011;33199;47.590;8.300;2023-04-15T07:31:47;1.15;;;0.90;;
30593;SDS011;33199;47.590;8.300;2023-04-15T07:34:13;3.45;;;1.90;;
30593;SDS011;33199;47.590;8.300;2023-04-15T07:36:38;3.55;;;2.17;;
30593;SDS011;33199;47.590;8.300;2023-04-15T07:39:04;6.75;;;1.92;;
30593;SDS011;33199;47.590;8.300;2023-04-15T07:41:30;1.73;;;1.60;;
30593;SDS011;33199;47.590;8.300;2023-04-15T07:43:56;3.58;;;1.83;;
30593;SDS011;33199;47.590;8.300;2023-04-15T07:46:21;5.97;;;1.58;;
30593;SDS011;33199;47.590;8.300;2023-04-15T07:48:48;3.25;;;1.55;;
30593;SDS011;33199;47.590;8.300;2023-04-15T07:51:14;1.35;;;1.25;;
30593;SDS011;33199;47.590;8.300;2023-04-15T07:53:41;3.90;;;1.45;;
30593;SDS011;33199;47.590;8.300;2023-04-15T07:56:08;4.30;;;1.40;;
30593;SDS011;33199;47.590;8.300;2023-04-15T07:58:34;1.98;;;1.35;;
30593;SDS011;33199;47.590;8.300;2023-04-15T08:01:00;4.55;;;1.70;;
30593;SDS011;33199;47.590;8.300;2023-04-15T08:03:25;6.10;;;1.60;;
30593;SDS011;33199;47.590;8.300;2023-04-15T08:05:51;6.35;;;1.60;;
30593;SDS011;33199;47.590;8.300;2023-04-15T08:08:18;4.53;;;1.63;;
30593;SDS011;33199;47.590;8.300;2023-04-15T08:10:43;3.97;;;1.30;;
30593;SDS011;33199;47.590;8.300;2023-04-15T08:13:09;4.75;;;1.60;;
30593;SDS011;33199;47.590;8.300;2023-04-15T08:15:35;2.58;;;1.40;;
30593;SDS011;33199;47.590;8.300;2023-04-15T08:18:01;4.80;;;1.33;;
30593;SDS011;33199;47.590;8.300;2023-04-15T08:20:26;3.10;;;1.50;;
30593;SDS011;33199;47.590;8.300;2023-04-15T08:22:52;7.13;;;1.73;;
30593;SDS011;33199;47.590;8.300;2023-04-15T08:25:18;2.83;;;1.40;;
30593;SDS011;33199;47.590;8.300;2023-04-15T08:27:47;3.20;;;1.75;;
30593;SDS011;33199;47.590;8.300;2023-04-15T08:30:12;2.97;;;1.60;;
30593;SDS011;33199;47.590;8.300;2023-04-15T08:32:38;3.70;;;1.48;;
30593;SDS011;33199;47.590;8.300;2023-04-15T08:35:04;4.35;;;1.90;;
30593;SDS011;33199;47.590;8.300;2023-04-15T08:37:30;6.15;;;1.85;;
30593;SDS011;33199;47.590;8.300;2023-04-15T08:39:56;1.83;;;1.35;;
30593;SDS011;33199;47.590;8.300;2023-04-15T08:42:31;3.67;;;1.85;;
30593;SDS011;33199;47.590;8.300;2023-04-15T08:45:03;3.17;;;1.33;;
30593;SDS011;33199;47.590;8.300;2023-04-15T08:47:29;2.97;;;1.33;;
30593;SDS011;33199;47.590;8.300;2023-04-15T08:49:58;3.13;;;1.20;;
30593;SDS011;33199;47.590;8.300;2023-04-15T08:52:29;1.70;;;1.10;;
30593;SDS011;33199;47.590;8.300;2023-04-15T08:54:55;2.38;;;1.50;;
30593;SDS011;33199;47.590;8.300;2023-04-15T08:57:27;2.33;;;1.45;;
30593;SDS011;33199;47.590;8.300;2023-04-15T08:59:56;3.42;;;1.35;;
30593;SDS011;33199;47.590;8.300;2023-04-15T09:02:23;2.47;;;1.10;;
30593;SDS011;33199;47.590;8.300;2023-04-15T09:04:51;1.35;;;1.13;;
30593;SDS011;33199;47.590;8.300;2023-04-15T09:07:17;1.40;;;1.30;;
30593;SDS011;33199;47.590;8.300;2023-04-15T09:09:42;1.73;;;1.20;;
30593;SDS011;33199;47.590;8.300;2023-04-15T09:12:08;2.85;;;1.30;;
30593;SDS011;33199;47.590;8.300;2023-04-15T09:14:35;2.22;;;1.08;;
30593;SDS011;33199;47.590;8.300;2023-04-15T09:17:02;2.90;;;1.30;;
30593;SDS011;33199;47.590;8.300;2023-04-15T09:19:29;2.60;;;1.20;;
30593;SDS011;33199;47.590;8.300;2023-04-15T09:21:57;2.65;;;1.45;;
30593;SDS011;33199;47.590;8.300;2023-04-15T09:24:23;3.67;;;1.30;;
30593;SDS011;33199;47.590;8.300;2023-04-15T09:26:51;1.85;;;1.40;;
30593;SDS011;33199;47.590;8.300;2023-04-15T09:29:21;4.20;;;1.20;;
30593;SDS011;33199;47.590;8.300;2023-04-15T09:31:50;1.45;;;1.13;;
30593;SDS011;33199;47.590;8.300;2023-04-15T09:34:16;1.15;;;1.13;;
30593;SDS011;33199;47.590;8.300;2023-04-15T09:36:52;1.30;;;1.20;;
30593;SDS011;33199;47.590;8.300;2023-04-15T09:39:20;3.53;;;1.50;;
30593;SDS011;33199;47.590;8.300;2023-04-15T09:41:45;3.47;;;1.10;;
30593;SDS011;33199;47.590;8.300;2023-04-15T09:44:21;2.95;;;1.70;;
30593;SDS011;33199;47.590;8.300;2023-04-15T09:46:48;1.38;;;1.08;;
30593;SDS011;33199;47.590;8.300;2023-04-15T09:49:13;2.17;;;1.35;;
30593;SDS011;33199;47.590;8.300;2023-04-15T09:51:40;2.30;;;0.95;;
30593;SDS011;33199;47.590;8.300;2023-04-15T09:54:05;2.03;;;1.33;;
30593;SDS011;33199;47.590;8.300;2023-04-15T09:56:33;4.82;;;1.20;;
30593;SDS011;33199;47.590;8.300;2023-04-15T09:59:01;3.53;;;0.90;;
30593;SDS011;33199;47.590;8.300;2023-04-15T10:01:27;1.30;;;1.00;;
30593;SDS011;33199;47.590;8.300;2023-04-15T10:03:53;1.40;;;1.30;;
30593;SDS011;33199;47.590;8.300;2023-04-15T10:06:21;2.15;;;1.08;;
30593;SDS011;33199;47.590;8.300;2023-04-15T10:08:50;1.23;;;1.13;;
30593;SDS011;33199;47.590;8.300;2023-04-15T10:11:16;1.77;;;1.20;;
30593;SDS011;33199;47.590;8.300;2023-04-15T10:13:43;2.78;;;1.00;;
30593;SDS011;33199;47.590;8.300;2023-04-15T10:16:11;1.33;;;0.93;;
30593;SDS011;33199;47.590;8.300;2023-04-15T10:18:46;1.50;;;1.10;;
30593;SDS011;33199;47.590;8.300;2023-04-15T10:21:15;2.60;;;1.40;;
30593;SDS011;33199;47.590;8.300;2023-04-15T10:23:42;2.45;;;1.15;;
30593;SDS011;33199;47.590;8.300;2023-04-15T10:26:10;2.53;;;1.55;;
30593;SDS011;33199;47.590;8.300;2023-04-15T10:28:37;1.75;;;1.05;;
30593;SDS011;33199;47.590;8.300;2023-04-15T10:31:04;1.65;;;0.90;;
30593;SDS011;33199;47.590;8.300;2023-04-15T10:33:31;3.90;;;1.20;;
30593;SDS011;33199;47.590;8.300;2023-04-15T10:35:57;2.53;;;1.17;;
30593;SDS011;33199;47.590;8.300;2023-04-15T10:38:40;2.38;;;0.98;;
30593;SDS011;33199;47.590;8.300;2023-04-15T10:43:37;3.42;;;1.27;;
30593;SDS011;33199;47.590;8.300;2023-04-15T10:46:04;2.72;;;1.33;;
30593;SDS011;33199;47.590;8.300;2023-04-15T10:48:30;10.20;;;1.50;;
30593;SDS011;33199;47.590;8.300;2023-04-15T10:50:56;2.78;;;1.30;;
30593;SDS011;33199;47.590;8.300;2023-04-15T10:53:27;1.88;;;1.20;;
30593;SDS011;33199;47.590;8.300;2023-04-15T10:55:54;1.70;;;1.15;;
30593;SDS011;33199;47.590;8.300;2023-04-15T10:58:22;5.78;;;1.02;;
30593;SDS011;33199;47.590;8.300;2023-04-15T11:00:50;3.05;;;1.27;;
30593;SDS011;33199;47.590;8.300;2023-04-15T11:03:20;3.03;;;1.20;;
30593;SDS011;33199;47.590;8.300;2023-04-15T11:06:03;2.50;;;1.00;;
30593;SDS011;33199;47.590;8.300;2023-04-15T11:11:23;1.15;;;0.70;;
30593;SDS011;33199;47.590;8.300;2023-04-15T11:14:13;3.60;;;1.33;;
30593;SDS011;33199;47.590;8.300;2023-04-15T11:16:43;1.23;;;1.00;;
30593;SDS011;33199;47.590;8.300;2023-04-15T11:19:09;2.05;;;0.90;;
30593;SDS011;33199;47.590;8.300;2023-04-15T11:21:35;1.35;;;0.93;;
30593;SDS011;33199;47.590;8.300;2023-04-15T11:24:00;1.75;;;0.90;;
30593;SDS011;33199;47.590;8.300;2023-04-15T11:26:26;0.80;;;0.80;;
30593;SDS011;33199;47.590;8.300;2023-04-15T11:28:51;1.75;;;0.90;;
30593;SDS011;33199;47.590;8.300;2023-04-15T11:31:18;3.55;;;0.88;;
30593;SDS011;33199;47.590;8.300;2023-04-15T11:33:52;1.83;;;1.40;;
30593;SDS011;33199;47.590;8.300;2023-04-15T11:36:19;1.25;;;0.80;;
30593;SDS011;33199;47.590;8.300;2023-04-15T11:38:47;1.48;;;1.10;;
30593;SDS011;33199;47.590;8.300;2023-04-15T11:41:13;0.90;;;0.80;;
30593;SDS011;33199;47.590;8.300;2023-04-15T11:43:39;2.10;;;0.90;;
30593;SDS011;33199;47.590;8.300;2023-04-15T11:46:05;2.25;;;1.05;;
30593;SDS011;33199;47.590;8.300;2023-04-15T11:48:33;3.15;;;0.80;;
30593;SDS011;33199;47.590;8.300;2023-04-15T11:51:03;0.85;;;0.77;;
30593;SDS011;33199;47.590;8.300;2023-04-15T11:56:10;2.00;;;0.88;;
30593;SDS011;33199;47.590;8.300;2023-04-15T11:58:55;3.13;;;1.25;;
30593;SDS011;33199;47.590;8.300;2023-04-15T12:01:34;1.00;;;0.95;;
30593;SDS011;33199;47.590;8.300;2023-04-15T12:06:38;2.03;;;0.88;;
30593;SDS011;33199;47.590;8.300;2023-04-15T12:14:59;0.73;;;0.73;;
30593;SDS011;33199;47.590;8.300;2023-04-15T12:16:59;2.85;;;0.88;;
30593;SDS011;33199;47.590;8.300;2023-04-15T12:19:41;1.05;;;0.70;;
30593;SDS011;33199;47.590;8.300;2023-04-15T12:22:13;2.38;;;0.90;;
30593;SDS011;33199;47.590;8.300;2023-04-15T12:24:41;1.17;;;0.70;;
30593;SDS011;33199;47.590;8.300;2023-04-15T12:27:11;1.88;;;1.08;;
30593;SDS011;33199;47.590;8.300;2023-04-15T12:29:38;2.75;;;1.13;;
30593;SDS011;33199;47.590;8.300;2023-04-15T12:34:39;0.75;;;0.75;;
30593;SDS011;33199;47.590;8.300;2023-04-15T12:37:06;2.00;;;0.60;;
30593;SDS011;33199;47.590;8.300;2023-04-15T12:39:37;1.95;;;0.95;;
30593;SDS011;33199;47.590;8.300;2023-04-15T12:42:04;1.10;;;0.80;;
30593;SDS011;33199;47.590;8.300;2023-04-15T12:44:30;1.70;;;0.63;;
30593;SDS011;33199;47.590;8.300;2023-04-15T12:46:57;0.70;;;0.70;;
30593;SDS011;33199;47.590;8.300;2023-04-15T12:49:23;1.63;;;0.73;;
30593;SDS011;33199;47.590;8.300;2023-04-15T12:51:53;1.42;;;0.70;;
30593;SDS011;33199;47.590;8.300;2023-04-15T12:54:26;1.80;;;0.50;;
30593;SDS011;33199;47.590;8.300;2023-04-15T12:56:52;0.80;;;0.70;;
30593;SDS011;33199;47.590;8.300;2023-04-15T12:59:19;1.25;;;0.80;;
30593;SDS011;33199;47.590;8.300;2023-04-15T13:01:45;1.33;;;0.80;;
30593;SDS011;33199;47.590;8.300;2023-04-15T13:04:12;0.93;;;0.70;;
30593;SDS011;33199;47.590;8.300;2023-04-15T13:06:37;0.70;;;0.70;;
30593;SDS011;33199;47.590;8.300;2023-04-15T13:09:03;1.13;;;0.70;;
30593;SDS011;33199;47.590;8.300;2023-04-15T13:11:30;1.30;;;1.20;;
30593;SDS011;33199;47.590;8.300;2023-04-15T13:13:58;3.15;;;0.80;;
30593;SDS011;33199;47.590;8.300;2023-04-15T13:16:28;1.33;;;0.80;;
30593;SDS011;33199;47.590;8.300;2023-04-15T13:18:54;1.15;;;0.70;;
30593;SDS011;33199;47.590;8.300;2023-04-15T13:21:19;0.50;;;0.50;;
30593;SDS011;33199;47.590;8.300;2023-04-15T13:23:45;3.63;;;0.90;;
30593;SDS011;33199;47.590;8.300;2023-04-15T13:26:12;1.33;;;0.95;;
30593;SDS011;33199;47.590;8.300;2023-04-15T13:28:38;1.13;;;0.75;;
30593;SDS011;33199;47.590;8.300;2023-04-15T13:31:04;1.55;;;0.90;;
30593;SDS011;33199;47.590;8.300;2023-04-15T13:33:30;1.25;;;0.82;;
30593;SDS011;33199;47.590;8.300;2023-04-15T13:35:55;1.10;;;0.80;;
30593;SDS011;33199;47.590;8.300;2023-04-15T13:38:21;0.93;;;0.80;;
30593;SDS011;33199;47.590;8.300;2023-04-15T13:40:49;3.40;;;0.57;;
30593;SDS011;33199;47.590;8.300;2023-04-15T13:43:15;0.90;;;0.90;;
30593;SDS011;33199;47.590;8.300;2023-04-15T13:45:41;1.45;;;1.35;;
30593;SDS011;33199;47.590;8.300;2023-04-15T13:48:07;0.90;;;0.80;;
30593;SDS011;33199;47.590;8.300;2023-04-15T13:50:33;3.17;;;0.90;;
30593;SDS011;33199;47.590;8.300;2023-04-15T13:52:58;0.63;;;0.60;;
30593;SDS011;33199;47.590;8.300;2023-04-15T13:55:24;0.75;;;0.75;;
30593;SDS011;33199;47.590;8.300;2023-04-15T13:57:50;0.82;;;0.65;;
30593;SDS011;33199;47.590;8.300;2023-04-15T14:00:16;1.95;;;0.80;;
30593;SDS011;33199;47.590;8.300;2023-04-15T14:02:42;2.25;;;0.75;;
30593;SDS011;33199;47.590;8.300;2023-04-15T14:05:07;1.10;;;0.75;;
30593;SDS011;33199;47.590;8.300;2023-04-15T14:07:34;2.85;;;0.75;;
30593;SDS011;33199;47.590;8.300;2023-04-15T14:10:00;0.75;;;0.75;;
30593;SDS011;33199;47.590;8.300;2023-04-15T14:12:26;1.52;;;0.90;;
30593;SDS011;33199;47.590;8.300;2023-04-15T14:14:51;2.15;;;0.60;;
30593;SDS011;33199;47.590;8.300;2023-04-15T14:17:17;0.80;;;0.70;;
30593;SDS011;33199;47.590;8.300;2023-04-15T14:19:42;0.65;;;0.60;;
30593;SDS011;33199;47.590;8.300;2023-04-15T14:22:08;1.25;;;0.70;;
30593;SDS011;33199;47.590;8.300;2023-04-15T14:24:34;1.27;;;0.60;;
30593;SDS011;33199;47.590;8.300;2023-04-15T14:26:59;1.02;;;0.63;;
30593;SDS011;33199;47.590;8.300;2023-04-15T14:29:26;0.60;;;0.57;;
30593;SDS011;33199;47.590;8.300;2023-04-15T14:31:52;2.00;;;0.77;;
30593;SDS011;33199;47.590;8.300;2023-04-15T14:34:17;0.90;;;0.90;;
30593;SDS011;33199;47.590;8.300;2023-04-15T14:36:43;0.60;;;0.60;;
30593;SDS011;33199;47.590;8.300;2023-04-15T14:39:09;1.23;;;0.63;;
30593;SDS011;33199;47.590;8.300;2023-04-15T14:41:35;0.65;;;0.65;;
30593;SDS011;33199;47.590;8.300;2023-04-15T14:44:01;1.02;;;0.50;;
30593;SDS011;33199;47.590;8.300;2023-04-15T14:46:27;1.67;;;0.70;;
30593;SDS011;33199;47.590;8.300;2023-04-15T14:48:53;0.60;;;0.55;;
30593;SDS011;33199;47.590;8.300;2023-04-15T14:51:18;0.50;;;0.50;;
30593;SDS011;33199;47.590;8.300;2023-04-15T14:53:44;1.27;;;0.60;;
30593;SDS011;33199;47.590;8.300;2023-04-15T14:56:10;1.27;;;0.60;;
30593;SDS011;33199;47.590;8.300;2023-04-15T14:58:36;0.60;;;0.60;;
30593;SDS011;33199;47.590;8.300;2023-04-15T15:01:02;2.38;;;0.93;;
30593;SDS011;33199;47.590;8.300;2023-04-15T15:03:28;1.40;;;0.60;;